createdAt,value
2023-03-26T00:04:48.622Z,99207.40
2023-03-26T00:09:51.339Z,99213.80
2023-03-26T00:14:51.842Z,99212.00
2023-03-26T00:19:51.457Z,99211.20
2023-03-26T00:24:52.529Z,99213.00
2023-03-26T00:29:52.258Z,99208.20
2023-03-26T00:34:52.292Z,99193.80
2023-03-26T00:39:52.150Z,99199.00
2023-03-26T00:44:55.368Z,99184.80
2023-03-26T00:49:55.448Z,99179.80
2023-03-26T00:54:57.481Z,99183.60
2023-03-26T00:59:58.318Z,99181.00
2023-03-26T01:05:04.207Z,99180.60
2023-03-26T01:10:05.548Z,99177.40
2023-03-26T01:15:08.435Z,99178.00
2023-03-26T01:20:26.955Z,99175.40
2023-03-26T01:25:33.819Z,99176.40
2023-03-26T01:30:49.927Z,99169.00
2023-03-26T01:35:58.921Z,99165.00
2023-03-26T01:41:06.772Z,99164.80
2023-03-26T01:46:15.582Z,99153.20
2023-03-26T01:51:29.116Z,99150.40
2023-03-26T01:56:39.352Z,99160.20
2023-03-26T02:01:55.189Z,99141.40
2023-03-26T02:07:10.058Z,99135.00
2023-03-26T02:12:15.818Z,99133.60
2023-03-26T02:17:19.489Z,99126.60
2023-03-26T02:22:19.702Z,99128.60
2023-03-26T02:27:37.778Z,99121.60
2023-03-26T02:32:40.572Z,99123.40
2023-03-26T02:37:42.331Z,99118.00
2023-03-26T02:42:48.583Z,99109.00
2023-03-26T02:47:48.571Z,99111.00
2023-03-26T02:53:06.455Z,99124.00
2023-03-26T02:58:08.244Z,99120.60
2023-03-26T03:03:13.384Z,99119.80
2023-03-26T03:08:34.379Z,99110.60
2023-03-26T03:13:47.290Z,99119.80
2023-03-26T03:18:58.158Z,99123.00
2023-03-26T03:24:03.451Z,99125.80
2023-03-26T03:29:07.409Z,99130.80
2023-03-26T03:34:08.232Z,99125.00
2023-03-26T03:39:17.156Z,99129.00
2023-03-26T03:44:17.483Z,99128.60
2023-03-26T03:49:18.062Z,99128.00
2023-03-26T03:54:18.509Z,99131.20
2023-03-26T03:59:33.097Z,99134.60
2023-03-26T04:04:34.740Z,99130.20
2023-03-26T04:09:39.925Z,99129.20
2023-03-26T04:14:46.061Z,99121.00
2023-03-26T04:19:48.496Z,99127.00
2023-03-26T04:24:48.880Z,99123.40
2023-03-26T04:29:58.650Z,99112.00
2023-03-26T04:35:00.925Z,99110.40
2023-03-26T04:40:00.725Z,99106.80
2023-03-26T04:45:11.589Z,99111.80
2023-03-26T04:50:18.109Z,99104.60
2023-03-26T04:55:32.473Z,99113.00
2023-03-26T05:00:46.732Z,99114.20
2023-03-26T05:05:46.524Z,99115.00
2023-03-26T05:10:46.752Z,99110.80
2023-03-26T05:15:55.826Z,99118.00
2023-03-26T05:21:21.173Z,99114.40
2023-03-26T05:26:21.291Z,99115.20
2023-03-26T05:31:23.793Z,99117.60
2023-03-26T05:36:26.560Z,99114.80
2023-03-26T05:41:35.639Z,99116.00
2023-03-26T05:46:36.303Z,99116.40
2023-03-26T05:51:37.130Z,99103.40
2023-03-26T05:56:54.383Z,99105.60
2023-03-26T06:02:15.902Z,99101.00
2023-03-26T06:07:35.504Z,99104.00
2023-03-26T06:12:43.522Z,99108.60
2023-03-26T06:17:44.042Z,99103.00
2023-03-26T06:23:08.341Z,99102.60
2023-03-26T06:28:39.387Z,99115.40
2023-03-26T06:34:05.670Z,99109.80
2023-03-26T06:39:10.492Z,99105.80
2023-03-26T06:44:31.216Z,99110.60
2023-03-26T06:49:49.596Z,99114.80
2023-03-26T06:55:02.229Z,99110.80
2023-03-26T07:00:22.668Z,99121.20
2023-03-26T07:05:42.467Z,99120.80
2023-03-26T07:11:04.201Z,99127.00
2023-03-26T07:16:22.761Z,99119.40
2023-03-26T07:21:46.882Z,99122.00
2023-03-26T07:27:39.928Z,99119.80
2023-03-26T07:32:53.325Z,99119.00
2023-03-26T07:38:45.572Z,99115.00
2023-03-26T07:44:40.370Z,99115.80
2023-03-26T07:49:59.799Z,99115.40
2023-03-26T07:55:48.859Z,99114.60
2023-03-26T08:01:16.621Z,99110.80
2023-03-26T08:06:29.810Z,99103.60
2023-03-26T08:12:20.535Z,99099.60
2023-03-26T08:17:30.652Z,99110.20
2023-03-26T08:22:37.640Z,99100.40
2023-03-26T08:27:49.974Z,99097.20
2023-03-26T08:33:02.499Z,99088.20
2023-03-26T08:38:04.839Z,99081.80
2023-03-26T08:43:55.111Z,99089.00
2023-03-26T08:49:43.047Z,99087.60
2023-03-26T08:55:34.570Z,99084.20
2023-03-26T09:01:12.061Z,99085.60
2023-03-26T09:07:23.617Z,99087.20
2023-03-26T09:13:04.729Z,99085.80
2023-03-26T09:19:09.464Z,99078.00
2023-03-26T09:25:04.069Z,99082.80
2023-03-26T09:30:53.847Z,99076.00
2023-03-26T09:36:33.980Z,99082.40
2023-03-26T09:42:06.116Z,99084.60
2023-03-26T09:47:38.921Z,99085.40
2023-03-26T09:53:05.004Z,99078.60
2023-03-26T09:58:41.745Z,99064.20
2023-03-26T10:04:24.055Z,99058.00
2023-03-26T10:09:45.003Z,99070.60
2023-03-26T10:14:52.995Z,99059.00
2023-03-26T10:20:13.652Z,99061.00
2023-03-26T10:25:50.654Z,99057.40
2023-03-26T10:31:35.052Z,99063.20
2023-03-26T10:36:42.782Z,99055.60
2023-03-26T10:41:56.182Z,99037.00
2023-03-26T10:47:16.200Z,99030.80
2023-03-26T10:52:20.962Z,99035.40
2023-03-26T10:57:37.180Z,99022.60
2023-03-26T11:02:49.180Z,99036.20
2023-03-26T11:07:57.313Z,99038.00
2023-03-26T11:13:05.589Z,99030.60
2023-03-26T11:18:17.485Z,99022.80
2023-03-26T11:23:37.937Z,99024.00
2023-03-26T11:29:32.356Z,99022.20
2023-03-26T11:34:40.252Z,99030.20
2023-03-26T11:39:51.278Z,99032.80
2023-03-26T11:44:57.740Z,99033.20
2023-03-26T11:50:02.118Z,99038.00
2023-03-26T11:55:01.579Z,99036.40
2023-03-26T12:00:16.886Z,99045.60
2023-03-26T12:05:35.327Z,99049.40
2023-03-26T12:11:01.645Z,99103.20
2023-03-26T12:16:11.821Z,99078.40
2023-03-26T12:21:15.202Z,99059.40
2023-03-26T12:26:41.523Z,99049.00
2023-03-26T12:31:56.209Z,99054.40
2023-03-26T12:37:00.251Z,99064.80
2023-03-26T12:44:43.297Z,99064.60
2023-03-26T12:47:59.339Z,99058.80
2023-03-26T12:53:15.172Z,99049.00
2023-03-26T12:58:38.530Z,99027.40
2023-03-26T13:04:04.392Z,99047.00
2023-03-26T13:10:05.412Z,99033.60
2023-03-26T13:15:33.856Z,99021.80
2023-03-26T13:20:50.484Z,99021.00
2023-03-26T13:26:03.190Z,99018.20
2023-03-26T13:31:18.289Z,99018.20
2023-03-26T13:36:31.194Z,99010.20
2023-03-26T13:41:50.643Z,99012.60
2023-03-26T13:46:59.927Z,99018.00
2023-03-26T13:52:06.137Z,99012.80
2023-03-26T13:57:20.483Z,99012.00
2023-03-26T14:02:38.374Z,99017.20
2023-03-26T14:07:49.111Z,99014.60
2023-03-26T14:12:57.638Z,99022.60
2023-03-26T14:18:09.690Z,99034.00
2023-03-26T14:23:45.549Z,99020.00
2023-03-26T14:29:32.205Z,99028.00
2023-03-26T14:34:51.977Z,99032.60
2023-03-26T14:40:52.563Z,99039.20
2023-03-26T14:46:33.198Z,99027.40
2023-03-26T14:51:57.006Z,99030.80
2023-03-26T14:57:29.100Z,99025.80
2023-03-26T15:03:11.590Z,99022.20
2023-03-26T15:09:05.700Z,99029.00
2023-03-26T15:14:59.283Z,99022.60
2023-03-26T15:20:46.062Z,99020.60
2023-03-26T15:26:41.880Z,99022.80
2023-03-26T15:32:33.815Z,99026.80
2023-03-26T15:38:18.305Z,99037.00
2023-03-26T15:43:21.381Z,99040.20
2023-03-26T15:54:32.714Z,99047.20
2023-03-26T15:59:51.388Z,99040.40
2023-03-26T16:04:57.669Z,99048.20
2023-03-26T16:10:19.122Z,99060.80
2023-03-26T16:15:40.715Z,99053.60
2023-03-26T16:20:55.494Z,99049.40
2023-03-26T16:26:18.306Z,99058.20
2023-03-26T16:31:38.120Z,99070.00
2023-03-26T16:36:43.938Z,99062.60
2023-03-26T16:42:06.181Z,99066.00
2023-03-26T16:47:21.992Z,99068.80
2023-03-26T16:52:37.034Z,99071.60
2023-03-26T16:57:49.639Z,99074.00
2023-03-26T17:03:08.605Z,99074.20
2023-03-26T17:08:36.352Z,99090.20
2023-03-26T17:13:51.107Z,99095.00
2023-03-26T17:19:05.537Z,99093.00
2023-03-26T17:24:37.704Z,99096.20
2023-03-26T17:30:36.545Z,99094.40
2023-03-26T17:35:53.305Z,99095.40
2023-03-26T17:41:01.427Z,99103.60
2023-03-26T17:46:04.159Z,99100.00
2023-03-26T17:51:24.889Z,99098.40
2023-03-26T17:56:33.602Z,99102.40
2023-03-26T18:01:40.275Z,99103.80
2023-03-26T18:06:58.417Z,99100.60
2023-03-26T18:12:32.715Z,99104.40
2023-03-26T18:18:01.123Z,99101.60
2023-03-26T18:23:00.652Z,99103.00
2023-03-26T18:28:02.892Z,99101.60
2023-03-26T18:33:16.757Z,99100.00
2023-03-26T18:38:36.922Z,99103.20
2023-03-26T18:43:43.829Z,99105.80
2023-03-26T18:48:45.446Z,99099.60
2023-03-26T18:53:53.630Z,99098.80
2023-03-26T18:59:00.113Z,99097.20
2023-03-26T19:04:04.245Z,99090.40
2023-03-26T19:09:13.541Z,99082.40
2023-03-26T19:14:22.401Z,99076.80
2023-03-26T19:19:27.886Z,99078.60
2023-03-26T19:24:28.802Z,99068.40
2023-03-26T19:29:36.248Z,99056.20
2023-03-26T19:34:42.397Z,99055.60
2023-03-26T19:39:46.696Z,99047.60
2023-03-26T19:44:47.768Z,99045.60
2023-03-26T19:49:57.785Z,99048.00
2023-03-26T19:55:04.464Z,99044.60
2023-03-26T20:00:13.347Z,99036.00
2023-03-26T20:05:24.285Z,99034.00
2023-03-26T20:10:23.889Z,99038.00
2023-03-26T20:15:28.686Z,99030.40
2023-03-26T20:20:34.827Z,99022.80
2023-03-26T20:25:49.856Z,99026.60
2023-03-26T20:30:56.989Z,99026.60
2023-03-26T20:35:59.536Z,99020.40
2023-03-26T20:41:00.539Z,99019.00
2023-03-26T20:46:01.825Z,99017.00
2023-03-26T20:51:01.980Z,99012.60
2023-03-26T20:56:02.048Z,99004.00
2023-03-26T21:01:08.889Z,99002.00
2023-03-26T21:06:13.494Z,99013.20
2023-03-26T21:11:28.010Z,99018.40
2023-03-26T21:16:29.662Z,99019.40
2023-03-26T21:21:48.674Z,99021.20
2023-03-26T21:27:00.126Z,99027.80
2023-03-26T21:32:01.861Z,99023.00
2023-03-26T21:37:07.266Z,99032.20
2023-03-26T21:42:09.037Z,99029.00
2023-03-26T21:47:14.522Z,99023.80
2023-03-26T21:52:17.143Z,99024.00
2023-03-26T21:57:37.591Z,99023.60
2023-03-26T22:02:51.221Z,99024.20
2023-03-26T22:08:00.227Z,99021.80
2023-03-26T22:13:00.244Z,99010.80
2023-03-26T22:18:03.814Z,99000.80
2023-03-26T22:23:03.417Z,98995.20
2023-03-26T22:28:04.636Z,98995.00
2023-03-26T22:33:04.504Z,98994.20
2023-03-26T22:38:04.279Z,98991.40
2023-03-26T22:43:03.474Z,98994.00
2023-03-26T22:48:04.648Z,98998.20
2023-03-26T22:53:05.078Z,99000.20
2023-03-26T22:58:04.127Z,99005.60
2023-03-26T23:03:04.737Z,99001.40
2023-03-26T23:08:03.818Z,99001.00
2023-03-26T23:13:02.863Z,98994.80
2023-03-26T23:18:07.166Z,98997.00
2023-03-26T23:23:09.113Z,98990.80
2023-03-26T23:28:08.417Z,98997.40
2023-03-26T23:33:09.042Z,98993.00
2023-03-26T23:38:08.636Z,98992.00
2023-03-26T23:43:07.357Z,99005.00
2023-03-26T23:48:11.190Z,99001.60
2023-03-26T23:53:11.839Z,99004.00
2023-03-26T23:58:10.808Z,99002.20
